sensor_id;sensor_type;location;lat;lon;timestamp;pressure;altitude;pressure_sealevel;temperature;humidity
56912;BME280;42800;53.928;27.662;2023-04-15T00:01:36;98632.78;;;7.54;100.00
56912;BME280;42800;53.928;27.662;2023-04-15T00:04:02;98636.06;;;7.44;100.00
56912;BME280;42800;53.928;27.662;2023-04-15T00:06:29;98635.22;;;7.40;100.00
56912;BME280;42800;53.928;27.662;2023-04-15T00:08:55;98615.31;;;7.39;100.00
56912;BME280;42800;53.928;27.662;2023-04-15T00:11:21;98617.41;;;7.65;100.00
56912;BME280;42800;53.928;27.662;2023-04-15T00:13:48;98626.38;;;7.66;100.00
56912;BME280;42800;53.928;27.662;2023-04-15T00:16:14;98642.75;;;7.46;100.00
56912;BME280;42800;53.928;27.662;2023-04-15T00:18:40;98637.75;;;7.68;100.00
56912;BME280;42800;53.928;27.662;2023-04-15T00:21:06;98632.69;;;7.50;100.00
56912;BME280;42800;53.928;27.662;2023-04-15T00:23:33;98624.94;;;7.52;100.00
56912;BME280;42800;53.928;27.662;2023-04-15T00:26:00;98624.22;;;7.55;100.00
56912;BME280;42800;53.928;27.662;2023-04-15T00:28:27;98637.44;;;7.53;100.00
56912;BME280;42800;53.928;27.662;2023-04-15T00:30:53;98647.25;;;7.39;100.00
56912;BME280;42800;53.928;27.662;2023-04-15T00:33:18;98639.72;;;7.51;100.00
56912;BME280;42800;53.928;27.662;2023-04-15T00:35:44;98659.97;;;7.50;100.00
56912;BME280;42800;53.928;27.662;2023-04-15T00:38:10;98651.72;;;7.47;100.00
56912;BME280;42800;53.928;27.662;2023-04-15T00:40:37;98679.47;;;7.33;100.00
56912;BME280;42800;53.928;27.662;2023-04-15T00:43:03;98676.59;;;7.45;100.00
56912;BME280;42800;53.928;27.662;2023-04-15T00:45:29;98680.38;;;7.57;100.00
56912;BME280;42800;53.928;27.662;2023-04-15T00:47:56;98697.38;;;7.50;100.00
56912;BME280;42800;53.928;27.662;2023-04-15T00:50:22;98704.16;;;7.40;100.00
56912;BME280;42800;53.928;27.662;2023-04-15T00:52:48;98710.28;;;7.53;100.00
56912;BME280;42800;53.928;27.662;2023-04-15T00:55:14;98694.38;;;7.39;100.00
56912;BME280;42800;53.928;27.662;2023-04-15T00:57:40;98696.56;;;7.49;100.00
56912;BME280;42800;53.928;27.662;2023-04-15T01:00:08;98704.59;;;7.77;100.00
56912;BME280;42800;53.928;27.662;2023-04-15T01:02:36;98706.44;;;7.54;100.00
56912;BME280;42800;53.928;27.662;2023-04-15T01:05:04;98696.31;;;7.39;100.00
56912;BME280;42800;53.928;27.662;2023-04-15T01:07:30;98685.84;;;7.57;100.00
56912;BME280;42800;53.928;27.662;2023-04-15T01:09:56;98673.25;;;7.52;100.00
56912;BME280;42800;53.928;27.662;2023-04-15T01:12:23;98678.72;;;7.36;100.00
56912;BME280;42800;53.928;27.662;2023-04-15T01:14:52;98656.84;;;7.32;100.00
56912;BME280;42800;53.928;27.662;2023-04-15T01:17:18;98686.63;;;7.57;100.00
56912;BME280;42800;53.928;27.662;2023-04-15T01:19:44;98696.75;;;7.57;100.00
56912;BME280;42800;53.928;27.662;2023-04-15T01:22:11;98700.34;;;7.61;100.00
56912;BME280;42800;53.928;27.662;2023-04-15T01:24:37;98695.78;;;7.49;100.00
56912;BME280;42800;53.928;27.662;2023-04-15T01:27:04;98684.94;;;7.52;100.00
56912;BME280;42800;53.928;27.662;2023-04-15T01:29:30;98704.47;;;7.54;100.00
56912;BME280;42800;53.928;27.662;2023-04-15T01:31:57;98690.88;;;7.74;100.00
56912;BME280;42800;53.928;27.662;2023-04-15T01:34:23;98703.31;;;7.55;100.00
56912;BME280;42800;53.928;27.662;2023-04-15T01:36:48;98693.00;;;7.65;100.00
56912;BME280;42800;53.928;27.662;2023-04-15T01:39:14;98697.31;;;7.66;100.00
56912;BME280;42800;53.928;27.662;2023-04-15T01:41:40;98678.09;;;7.78;100.00
56912;BME280;42800;53.928;27.662;2023-04-15T01:44:07;98690.69;;;7.47;100.00
56912;BME280;42800;53.928;27.662;2023-04-15T01:46:34;98659.13;;;7.66;100.00
56912;BME280;42800;53.928;27.662;2023-04-15T01:49:00;98685.56;;;7.46;100.00
56912;BME280;42800;53.928;27.662;2023-04-15T01:51:26;98670.72;;;7.43;100.00
56912;BME280;42800;53.928;27.662;2023-04-15T01:53:52;98670.72;;;7.43;100.00
56912;BME280;42800;53.928;27.662;2023-04-15T01:56:21;98678.69;;;7.52;100.00
56912;BME280;42800;53.928;27.662;2023-04-15T01:58:48;98681.63;;;7.43;100.00
56912;BME280;42800;53.928;27.662;2023-04-15T02:01:15;98671.38;;;7.56;100.00
56912;BME280;42800;53.928;27.662;2023-04-15T02:03:41;98658.59;;;7.41;100.00
56912;BME280;42800;53.928;27.662;2023-04-15T02:06:07;98653.78;;;7.34;100.00
56912;BME280;42800;53.928;27.662;2023-04-15T02:08:33;98631.41;;;7.44;100.00
56912;BME280;42800;53.928;27.662;2023-04-15T02:10:59;98653.31;;;7.32;100.00
56912;BME280;42800;53.928;27.662;2023-04-15T02:13:25;98643.38;;;7.40;100.00
56912;BME280;42800;53.928;27.662;2023-04-15T02:15:53;98641.94;;;7.46;100.00
56912;BME280;42800;53.928;27.662;2023-04-15T02:18:20;98623.50;;;7.59;100.00
56912;BME280;42800;53.928;27.662;2023-04-15T02:20:46;98618.50;;;7.25;100.00
56912;BME280;42800;53.928;27.662;2023-04-15T02:23:13;98597.16;;;7.27;100.00
56912;BME280;42800;53.928;27.662;2023-04-15T02:25:39;98611.72;;;7.35;100.00
56912;BME280;42800;53.928;27.662;2023-04-15T02:28:05;98621.88;;;7.54;100.00
56912;BME280;42800;53.928;27.662;2023-04-15T02:30:31;98601.97;;;7.34;100.00
56912;BME280;42800;53.928;27.662;2023-04-15T02:32:57;98603.25;;;7.40;100.00
56912;BME280;42800;53.928;27.662;2023-04-15T02:35:24;98596.00;;;7.48;100.00
56912;BME280;42800;53.928;27.662;2023-04-15T02:37:50;98608.34;;;7.42;100.00
56912;BME280;42800;53.928;27.662;2023-04-15T02:40:16;98609.34;;;7.34;100.00
56912;BME280;42800;53.928;27.662;2023-04-15T02:42:43;98603.34;;;7.44;100.00
56912;BME280;42800;53.928;27.662;2023-04-15T02:45:10;98600.81;;;7.54;100.00
56912;BME280;42800;53.928;27.662;2023-04-15T02:47:37;98599.56;;;7.32;100.00
56912;BME280;42800;53.928;27.662;2023-04-15T02:50:07;98584.78;;;7.14;100.00
56912;BME280;42800;53.928;27.662;2023-04-15T02:52:34;98564.84;;;7.29;100.00
56912;BME280;42800;53.928;27.662;2023-04-15T02:55:00;98580.88;;;7.50;100.00
56912;BME280;42800;53.928;27.662;2023-04-15T02:57:27;98591.31;;;7.29;100.00
56912;BME280;42800;53.928;27.662;2023-04-15T02:59:53;98583.47;;;7.43;100.00
56912;BME280;42800;53.928;27.662;2023-04-15T03:02:19;98594.19;;;7.36;100.00
56912;BME280;42800;53.928;27.662;2023-04-15T03:04:45;98569.66;;;7.17;100.00
56912;BME280;42800;53.928;27.662;2023-04-15T03:07:11;98568.13;;;7.19;100.00
56912;BME280;42800;53.928;27.662;2023-04-15T03:09:37;98564.19;;;7.36;100.00
56912;BME280;42800;53.928;27.662;2023-04-15T03:12:04;98594.38;;;7.43;100.00
56912;BME280;42800;53.928;27.662;2023-04-15T03:14:30;98598.06;;;7.35;100.00
56912;BME280;42800;53.928;27.662;2023-04-15T03:16:56;98576.78;;;7.41;100.00
56912;BME280;42800;53.928;27.662;2023-04-15T03:19:23;98598.22;;;7.42;100.00
56912;BME280;42800;53.928;27.662;2023-04-15T03:21:49;98607.94;;;7.59;100.00
56912;BME280;42800;53.928;27.662;2023-04-15T03:24:16;98607.28;;;7.46;100.00
56912;BME280;42800;53.928;27.662;2023-04-15T03:26:43;98605.69;;;7.45;100.00
56912;BME280;42800;53.928;27.662;2023-04-15T03:29:09;98607.94;;;7.40;100.00
56912;BME280;42800;53.928;27.662;2023-04-15T03:31:35;98614.50;;;7.39;100.00
56912;BME280;42800;53.928;27.662;2023-04-15T03:34:01;98597.88;;;7.08;100.00
56912;BME280;42800;53.928;27.662;2023-04-15T03:36:28;98605.09;;;7.36;100.00
56912;BME280;42800;53.928;27.662;2023-04-15T03:38:54;98591.06;;;7.34;100.00
56912;BME280;42800;53.928;27.662;2023-04-15T03:41:21;98593.00;;;7.34;100.00
56912;BME280;42800;53.928;27.662;2023-04-15T03:43:47;98597.91;;;7.63;100.00
56912;BME280;42800;53.928;27.662;2023-04-15T03:46:13;98625.28;;;7.31;100.00
56912;BME280;42800;53.928;27.662;2023-04-15T03:48:39;98612.38;;;7.48;100.00
56912;BME280;42800;53.928;27.662;2023-04-15T03:51:05;98599.13;;;7.11;100.00
56912;BME280;42800;53.928;27.662;2023-04-15T03:53:31;98602.00;;;7.18;100.00
56912;BME280;42800;53.928;27.662;2023-04-15T03:55:57;98583.28;;;7.36;100.00
56912;BME280;42800;53.928;27.662;2023-04-15T03:58:23;98601.09;;;7.49;100.00
56912;BME280;42800;53.928;27.662;2023-04-15T04:00:50;98613.22;;;7.32;100.00
56912;BME280;42800;53.928;27.662;2023-04-15T04:03:16;98614.41;;;7.51;100.00
56912;BME280;42800;53.928;27.662;2023-04-15T04:05:42;98615.59;;;7.34;100.00
56912;BME280;42800;53.928;27.662;2023-04-15T04:08:09;98605.41;;;7.31;100.00
56912;BME280;42800;53.928;27.662;2023-04-15T04:10:38;98612.31;;;7.44;100.00
56912;BME280;42800;53.928;27.662;2023-04-15T04:13:04;98617.13;;;7.51;100.00
56912;BME280;42800;53.928;27.662;2023-04-15T04:15:30;98613.38;;;7.40;100.00
56912;BME280;42800;53.928;27.662;2023-04-15T04:17:56;98598.16;;;7.39;100.00
56912;BME280;42800;53.928;27.662;2023-04-15T04:20:22;98605.69;;;7.45;100.00
56912;BME280;42800;53.928;27.662;2023-04-15T04:22:49;98603.69;;;7.42;100.00
56912;BME280;42800;53.928;27.662;2023-04-15T04:25:15;98584.75;;;7.30;100.00
56912;BME280;42800;53.928;27.662;2023-04-15T04:27:41;98589.63;;;7.40;100.00
56912;BME280;42800;53.928;27.662;2023-04-15T04:30:07;98579.84;;;7.20;100.00
56912;BME280;42800;53.928;27.662;2023-04-15T04:32:34;98588.03;;;7.39;100.00
56912;BME280;42800;53.928;27.662;2023-04-15T04:35:00;98603.69;;;7.42;100.00
56912;BME280;42800;53.928;27.662;2023-04-15T04:37:26;98609.53;;;7.25;100.00
56912;BME280;42800;53.928;27.662;2023-04-15T04:39:52;98595.06;;;7.21;100.00
56912;BME280;42800;53.928;27.662;2023-04-15T04:42:18;98600.63;;;7.08;100.00
56912;BME280;42800;53.928;27.662;2023-04-15T04:44:44;98595.66;;;7.30;100.00
56912;BME280;42800;53.928;27.662;2023-04-15T04:47:10;98584.09;;;7.56;100.00
56912;BME280;42800;53.928;27.662;2023-04-15T04:49:36;98615.38;;;7.23;100.00
56912;BME280;42800;53.928;27.662;2023-04-15T04:52:02;98610.41;;;7.29;100.00
56912;BME280;42800;53.928;27.662;2023-04-15T04:54:28;98613.66;;;7.35;100.00
56912;BME280;42800;53.928;27.662;2023-04-15T04:56:55;98630.38;;;7.52;100.00
56912;BME280;42800;53.928;27.662;2023-04-15T04:59:22;98615.19;;;7.16;100.00
56912;BME280;42800;53.928;27.662;2023-04-15T05:01:48;98616.47;;;7.38;100.00
56912;BME280;42800;53.928;27.662;2023-04-15T05:04:14;98616.00;;;7.36;100.00
56912;BME280;42800;53.928;27.662;2023-04-15T05:06:40;98622.09;;;7.29;100.00
56912;BME280;42800;53.928;27.662;2023-04-15T05:09:06;98622.91;;;7.30;100.00
56912;BME280;42800;53.928;27.662;2023-04-15T05:11:32;98656.81;;;7.48;100.00
56912;BME280;42800;53.928;27.662;2023-04-15T05:13:58;98665.50;;;7.19;100.00
56912;BME280;42800;53.928;27.662;2023-04-15T05:16:26;98653.00;;;7.53;100.00
56912;BME280;42800;53.928;27.662;2023-04-15T05:18:52;98677.72;;;7.09;100.00
56912;BME280;42800;53.928;27.662;2023-04-15T05:21:18;98669.13;;;7.42;100.00
56912;BME280;42800;53.928;27.662;2023-04-15T05:23:44;98684.72;;;7.42;100.00
56912;BME280;42800;53.928;27.662;2023-04-15T05:26:11;98662.78;;;7.54;100.00
56912;BME280;42800;53.928;27.662;2023-04-15T05:28:37;98693.56;;;7.54;100.00
56912;BME280;42800;53.928;27.662;2023-04-15T05:31:03;98702.00;;;7.49;100.00
56912;BME280;42800;53.928;27.662;2023-04-15T05:33:29;98716.91;;;7.36;100.00
56912;BME280;42800;53.928;27.662;2023-04-15T05:35:55;98695.69;;;7.45;100.00
56912;BME280;42800;53.928;27.662;2023-04-15T05:38:21;98730.09;;;7.85;100.00
56912;BME280;42800;53.928;27.662;2023-04-15T05:40:47;98740.00;;;7.74;100.00
56912;BME280;42800;53.928;27.662;2023-04-15T05:43:13;98752.97;;;7.45;100.00
56912;BME280;42800;53.928;27.662;2023-04-15T05:45:39;98758.38;;;7.77;100.00
56912;BME280;42800;53.928;27.662;2023-04-15T05:48:06;98774.59;;;7.70;100.00
56912;BME280;42800;53.928;27.662;2023-04-15T05:50:32;98784.97;;;7.80;100.00
56912;BME280;42800;53.928;27.662;2023-04-15T05:52:59;98798.78;;;7.87;100.00
56912;BME280;42800;53.928;27.662;2023-04-15T05:55:25;98796.78;;;8.04;100.00
56912;BME280;42800;53.928;27.662;2023-04-15T05:57:51;98805.94;;;7.60;100.00
56912;BME280;42800;53.928;27.662;2023-04-15T06:00:18;98825.63;;;7.69;100.00
56912;BME280;42800;53.928;27.662;2023-04-15T06:02:44;98802.09;;;7.96;100.00
56912;BME280;42800;53.928;27.662;2023-04-15T06:05:10;98822.53;;;8.22;100.00
56912;BME280;42800;53.928;27.662;2023-04-15T06:07:37;98850.09;;;7.82;100.00
56912;BME280;42800;53.928;27.662;2023-04-15T06:10:04;98835.81;;;7.88;100.00
56912;BME280;42800;53.928;27.662;2023-04-15T06:12:30;98837.16;;;7.63;100.00
56912;BME280;42800;53.928;27.662;2023-04-15T06:14:56;98870.59;;;7.75;100.00
56912;BME280;42800;53.928;27.662;2023-04-15T06:17:23;98870.00;;;7.50;100.00
56912;BME280;42800;53.928;27.662;2023-04-15T06:19:49;98864.78;;;7.29;100.00
56912;BME280;42800;53.928;27.662;2023-04-15T06:22:19;98856.25;;;7.63;100.00
56912;BME280;42800;53.928;27.662;2023-04-15T06:24:45;98847.91;;;7.55;100.00
56912;BME280;42800;53.928;27.662;2023-04-15T06:27:12;98856.00;;;7.84;100.00
56912;BME280;42800;53.928;27.662;2023-04-15T06:29:38;98884.78;;;7.81;100.00
56912;BME280;42800;53.928;27.662;2023-04-15T06:32:04;98881.97;;;7.77;100.00
56912;BME280;42800;53.928;27.662;2023-04-15T06:34:31;98858.06;;;8.06;100.00
56912;BME280;42800;53.928;27.662;2023-04-15T06:36:56;98869.91;;;7.78;100.00
56912;BME280;42800;53.928;27.662;2023-04-15T06:39:22;98849.13;;;7.74;100.00
56912;BME280;42800;53.928;27.662;2023-04-15T06:41:48;98827.97;;;8.38;100.00
56912;BME280;42800;53.928;27.662;2023-04-15T06:44:15;98899.28;;;8.01;100.00
56912;BME280;42800;53.928;27.662;2023-04-15T06:46:41;98895.41;;;7.86;100.00
56912;BME280;42800;53.928;27.662;2023-04-15T06:49:07;98891.72;;;7.94;100.00
56912;BME280;42800;53.928;27.662;2023-04-15T06:51:34;98920.41;;;8.20;100.00
56912;BME280;42800;53.928;27.662;2023-04-15T06:54:00;98942.34;;;8.08;100.00
56912;BME280;42800;53.928;27.662;2023-04-15T06:56:30;98965.78;;;7.77;100.00
56912;BME280;42800;53.928;27.662;2023-04-15T06:58:56;98993.91;;;7.65;100.00
56912;BME280;42800;53.928;27.662;2023-04-15T07:01:22;98983.56;;;7.87;100.00
56912;BME280;42800;53.928;27.662;2023-04-15T07:03:48;98999.91;;;7.71;100.00
56912;BME280;42800;53.928;27.662;2023-04-15T07:06:13;99008.44;;;7.69;100.00
56912;BME280;42800;53.928;27.662;2023-04-15T07:08:40;99011.22;;;8.01;100.00
56912;BME280;42800;53.928;27.662;2023-04-15T07:11:06;99017.53;;;7.89;100.00
56912;BME280;42800;53.928;27.662;2023-04-15T07:13:33;99044.41;;;7.59;100.00
56912;BME280;42800;53.928;27.662;2023-04-15T07:15:59;99034.78;;;7.49;100.00
56912;BME280;42800;53.928;27.662;2023-04-15T07:18:25;99021.97;;;7.66;100.00
56912;BME280;42800;53.928;27.662;2023-04-15T07:20:51;99037.44;;;7.74;100.00
56912;BME280;42800;53.928;27.662;2023-04-15T07:23:17;99020.28;;;7.89;100.00
56912;BME280;42800;53.928;27.662;2023-04-15T07:25:43;99034.00;;;7.93;100.00
56912;BME280;42800;53.928;27.662;2023-04-15T07:28:09;99048.63;;;7.85;100.00
56912;BME280;42800;53.928;27.662;2023-04-15T07:30:36;99048.47;;;8.09;100.00
56912;BME280;42800;53.928;27.662;2023-04-15T07:33:02;99061.13;;;7.86;100.00
56912;BME280;42800;53.928;27.662;2023-04-15T07:35:28;99050.19;;;7.70;100.00
56912;BME280;42800;53.928;27.662;2023-04-15T07:37:54;99045.91;;;7.57;100.00
56912;BME280;42800;53.928;27.662;2023-04-15T07:40:20;99038.66;;;7.76;100.00
56912;BME280;42800;53.928;27.662;2023-04-15T07:42:47;99032.69;;;7.87;100.00
56912;BME280;42800;53.928;27.662;2023-04-15T07:45:14;99086.22;;;7.91;100.00
56912;BME280;42800;53.928;27.662;2023-04-15T07:47:40;99069.13;;;7.78;100.00
56912;BME280;42800;53.928;27.662;2023-04-15T07:50:08;99077.81;;;7.68;100.00
56912;BME280;42800;53.928;27.662;2023-04-15T07:52:35;99092.56;;;7.39;100.00
56912;BME280;42800;53.928;27.662;2023-04-15T07:55:04;99075.44;;;7.67;100.00
56912;BME280;42800;53.928;27.662;2023-04-15T07:57:30;99087.03;;;7.92;100.00
56912;BME280;42800;53.928;27.662;2023-04-15T07:59:57;99098.03;;;7.95;100.00
56912;BME280;42800;53.928;27.662;2023-04-15T08:02:23;99111.59;;;7.64;100.00
56912;BME280;42800;53.928;27.662;2023-04-15T08:04:49;99101.38;;;7.61;100.00
56912;BME280;42800;53.928;27.662;2023-04-15T08:07:15;99113.03;;;7.73;100.00
56912;BME280;42800;53.928;27.662;2023-04-15T08:09:41;99097.19;;;8.23;100.00
56912;BME280;42800;53.928;27.662;2023-04-15T08:12:07;99106.31;;;8.43;100.00
56912;BME280;42800;53.928;27.662;2023-04-15T08:14:36;99126.75;;;8.33;100.00
56912;BME280;42800;53.928;27.662;2023-04-15T08:17:03;99121.31;;;8.81;100.00
56912;BME280;42800;53.928;27.662;2023-04-15T08:19:29;99118.22;;;8.98;100.00
56912;BME280;42800;53.928;27.662;2023-04-15T08:21:56;99133.53;;;9.54;100.00
56912;BME280;42800;53.928;27.662;2023-04-15T08:24:22;99140.69;;;9.42;100.00
56912;BME280;42800;53.928;27.662;2023-04-15T08:26:48;99143.00;;;8.89;98.06
56912;BME280;42800;53.928;27.662;2023-04-15T08:29:14;99144.56;;;9.06;100.00
56912;BME280;42800;53.928;27.662;2023-04-15T08:31:40;99139.66;;;8.80;100.00
56912;BME280;42800;53.928;27.662;2023-04-15T08:34:06;99142.44;;;9.00;100.00
56912;BME280;42800;53.928;27.662;2023-04-15T08:36:33;99140.56;;;9.19;100.00
56912;BME280;42800;53.928;27.662;2023-04-15T08:38:59;99149.84;;;9.15;100.00
56912;BME280;42800;53.928;27.662;2023-04-15T08:41:31;99146.63;;;8.78;100.00
56912;BME280;42800;53.928;27.662;2023-04-15T08:44:02;99139.44;;;9.21;100.00
56912;BME280;42800;53.928;27.662;2023-04-15T08:46:29;99157.97;;;8.95;100.00
56912;BME280;42800;53.928;27.662;2023-04-15T08:48:57;99151.13;;;8.70;100.00
56912;BME280;42800;53.928;27.662;2023-04-15T08:51:24;99170.41;;;8.61;100.00
56912;BME280;42800;53.928;27.662;2023-04-15T08:53:50;99158.88;;;8.24;100.00
56912;BME280;42800;53.928;27.662;2023-04-15T08:56:17;99151.13;;;8.54;100.00
56912;BME280;42800;53.928;27.662;2023-04-15T08:58:45;99144.72;;;8.34;100.00
56912;BME280;42800;53.928;27.662;2023-04-15T09:01:12;99156.56;;;8.54;100.00
56912;BME280;42800;53.928;27.662;2023-04-15T09:03:38;99146.44;;;8.55;100.00
56912;BME280;42800;53.928;27.662;2023-04-15T09:06:04;99150.84;;;8.59;100.00
56912;BME280;42800;53.928;27.662;2023-04-15T09:08:31;99137.31;;;8.35;100.00
56912;BME280;42800;53.928;27.662;2023-04-15T09:10:59;99132.94;;;8.46;100.00
56912;BME280;42800;53.928;27.662;2023-04-15T09:13:25;99142.91;;;8.86;100.00
56912;BME280;42800;53.928;27.662;2023-04-15T09:15:52;99149.81;;;8.64;100.00
56912;BME280;42800;53.928;27.662;2023-04-15T09:18:26;99141.44;;;8.29;100.00
56912;BME280;42800;53.928;27.662;2023-04-15T09:20:53;99135.16;;;8.40;100.00
56912;BME280;42800;53.928;27.662;2023-04-15T09:23:20;99135.31;;;8.79;100.00
56912;BME280;42800;53.928;27.662;2023-04-15T09:25:47;99155.78;;;8.85;100.00
56912;BME280;42800;53.928;27.662;2023-04-15T09:28:13;99147.16;;;8.83;100.00
56912;BME280;42800;53.928;27.662;2023-04-15T09:30:41;99141.25;;;8.81;100.00
56912;BME280;42800;53.928;27.662;2023-04-15T09:33:13;99141.94;;;8.94;100.00
56912;BME280;42800;53.928;27.662;2023-04-15T09:35:39;99151.91;;;8.70;100.00
56912;BME280;42800;53.928;27.662;2023-04-15T09:38:07;99146.91;;;8.29;100.00
56912;BME280;42800;53.928;27.662;2023-04-15T09:40:35;99147.84;;;8.48;100.00
56912;BME280;42800;53.928;27.662;2023-04-15T09:43:02;99158.22;;;8.43;100.00
56912;BME280;42800;53.928;27.662;2023-04-15T09:45:30;99136.75;;;8.57;100.00
56912;BME280;42800;53.928;27.662;2023-04-15T09:47:56;99148.38;;;8.54;100.00
56912;BME280;42800;53.928;27.662;2023-04-15T09:50:26;99153.91;;;8.42;100.00
56912;BME280;42800;53.928;27.662;2023-04-15T09:52:54;99136.47;;;8.46;100.00
56912;BME280;42800;53.928;27.662;2023-04-15T09:55:20;99153.06;;;8.54;100.00
56912;BME280;42800;53.928;27.662;2023-04-15T09:57:46;99165.66;;;8.58;100.00
56912;BME280;42800;53.928;27.662;2023-04-15T10:00:13;99151.09;;;8.38;100.00
56912;BME280;42800;53.928;27.662;2023-04-15T10:02:40;99154.47;;;8.63;100.00
56912;BME280;42800;53.928;27.662;2023-04-15T10:05:07;99157.56;;;8.78;100.00
56912;BME280;42800;53.928;27.662;2023-04-15T10:07:35;99176.34;;;8.63;100.00
56912;BME280;42800;53.928;27.662;2023-04-15T10:10:02;99154.38;;;8.60;100.00
56912;BME280;42800;53.928;27.662;2023-04-15T10:12:30;99157.63;;;8.49;100.00
56912;BME280;42800;53.928;27.662;2023-04-15T10:15:00;99164.94;;;8.45;100.00
56912;BME280;42800;53.928;27.662;2023-04-15T10:17:31;99150.56;;;8.48;100.00
56912;BME280;42800;53.928;27.662;2023-04-15T10:20:00;99152.78;;;8.15;100.00
56912;BME280;42800;53.928;27.662;2023-04-15T10:22:27;99148.16;;;8.31;100.00
56912;BME280;42800;53.928;27.662;2023-04-15T10:24:55;99154.16;;;8.09;100.00
56912;BME280;42800;53.928;27.662;2023-04-15T10:27:21;99146.25;;;8.19;100.00
56912;BME280;42800;53.928;27.662;2023-04-15T10:29:47;99153.50;;;8.28;100.00
56912;BME280;42800;53.928;27.662;2023-04-15T10:32:17;99146.44;;;8.11;100.00
56912;BME280;42800;53.928;27.662;2023-04-15T10:34:44;99136.81;;;8.45;100.00
56912;BME280;42800;53.928;27.662;2023-04-15T10:37:10;99148.06;;;8.28;100.00
56912;BME280;42800;53.928;27.662;2023-04-15T10:39:41;99141.16;;;8.62;100.00
56912;BME280;42800;53.928;27.662;2023-04-15T10:42:09;99143.84;;;8.30;100.00
56912;BME280;42800;53.928;27.662;2023-04-15T10:44:37;99137.88;;;8.12;100.00
56912;BME280;42800;53.928;27.662;2023-04-15T10:47:09;99143.13;;;8.33;100.00
56912;BME280;42800;53.928;27.662;2023-04-15T10:49:42;99136.47;;;8.62;100.00
56912;BME280;42800;53.928;27.662;2023-04-15T10:52:10;99152.22;;;8.37;100.00
56912;BME280;42800;53.928;27.662;2023-04-15T10:54:36;99152.28;;;8.53;100.00
56912;BME280;42800;53.928;27.662;2023-04-15T10:57:08;99147.25;;;8.71;100.00
56912;BME280;42800;53.928;27.662;2023-04-15T10:59:58;99148.19;;;8.63;100.00
56912;BME280;42800;53.928;27.662;2023-04-15T11:02:37;99161.97;;;8.98;99.55
56912;BME280;42800;53.928;27.662;2023-04-15T11:05:04;99163.13;;;9.32;98.52
56912;BME280;42800;53.928;27.662;2023-04-15T11:07:35;99169.38;;;8.98;98.45
56912;BME280;42800;53.928;27.662;2023-04-15T11:10:01;99163.19;;;8.85;96.97
56912;BME280;42800;53.928;27.662;2023-04-15T11:12:33;99170.31;;;8.89;94.99
56912;BME280;42800;53.928;27.662;2023-04-15T11:15:26;99176.41;;;9.14;93.84
56912;BME280;42800;53.928;27.662;2023-04-15T11:17:52;99157.41;;;8.86;94.29
56912;BME280;42800;53.928;27.662;2023-04-15T11:20:18;99164.69;;;8.98;94.29
56912;BME280;42800;53.928;27.662;2023-04-15T11:22:47;99170.41;;;9.09;92.32
56912;BME280;42800;53.928;27.662;2023-04-15T11:25:21;99168.13;;;9.46;92.68
56912;BME280;42800;53.928;27.662;2023-04-15T11:27:47;99169.31;;;9.64;91.11
56912;BME280;42800;53.928;27.662;2023-04-15T11:30:18;99181.03;;;9.81;87.74
56912;BME280;42800;53.928;27.662;2023-04-15T11:32:45;99174.84;;;9.49;86.92
56912;BME280;42800;53.928;27.662;2023-04-15T11:35:11;99177.81;;;9.59;86.06
56912;BME280;42800;53.928;27.662;2023-04-15T11:37:37;99178.06;;;9.35;86.38
56912;BME280;42800;53.928;27.662;2023-04-15T11:40:05;99185.16;;;9.20;85.74
56912;BME280;42800;53.928;27.662;2023-04-15T11:42:32;99188.47;;;9.29;85.28
56912;BME280;42800;53.928;27.662;2023-04-15T11:45:05;99185.19;;;9.39;85.01
56912;BME280;42800;53.928;27.662;2023-04-15T11:47:32;99171.88;;;9.38;85.90
56912;BME280;42800;53.928;27.662;2023-04-15T11:50:13;99168.13;;;9.46;84.36
56912;BME280;42800;53.928;27.662;2023-04-15T11:52:39;99174.66;;;9.96;82.77
56912;BME280;42800;53.928;27.662;2023-04-15T11:55:07;99195.59;;;9.50;81.33
56912;BME280;42800;53.928;27.662;2023-04-15T11:57:33;99178.66;;;9.44;83.42
56912;BME280;42800;53.928;27.662;2023-04-15T11:59:59;99189.19;;;9.61;83.65
56912;BME280;42800;53.928;27.662;2023-04-15T12:02:30;99189.06;;;9.38;85.00
56912;BME280;42800;53.928;27.662;2023-04-15T12:05:02;99190.44;;;9.13;85.27
56912;BME280;42800;53.928;27.662;2023-04-15T12:07:28;99198.16;;;9.42;86.76
56912;BME280;42800;53.928;27.662;2023-04-15T12:09:54;99185.69;;;9.61;86.40
56912;BME280;42800;53.928;27.662;2023-04-15T12:12:26;99203.69;;;9.11;81.97
56912;BME280;42800;53.928;27.662;2023-04-15T12:14:52;99188.25;;;8.87;84.14
56912;BME280;42800;53.928;27.662;2023-04-15T12:17:18;99191.25;;;9.13;87.82
56912;BME280;42800;53.928;27.662;2023-04-15T12:19:44;99184.41;;;9.39;86.83
56912;BME280;42800;53.928;27.662;2023-04-15T12:22:11;99197.88;;;9.83;82.91
56912;BME280;42800;53.928;27.662;2023-04-15T12:24:37;99188.16;;;9.15;83.98
56912;BME280;42800;53.928;27.662;2023-04-15T12:27:04;99192.81;;;9.30;83.12
56912;BME280;42800;53.928;27.662;2023-04-15T12:29:32;99186.88;;;9.28;82.38
56912;BME280;42800;53.928;27.662;2023-04-15T12:32:04;99203.84;;;9.34;83.34
56912;BME280;42800;53.928;27.662;2023-04-15T12:34:32;99185.72;;;9.29;84.68
56912;BME280;42800;53.928;27.662;2023-04-15T12:37:00;99189.66;;;8.97;87.73
56912;BME280;42800;53.928;27.662;2023-04-15T12:39:27;99183.53;;;9.35;84.60
56912;BME280;42800;53.928;27.662;2023-04-15T12:41:54;99174.00;;;9.29;84.22
56912;BME280;42800;53.928;27.662;2023-04-15T12:44:21;99177.50;;;9.10;83.87
56912;BME280;42800;53.928;27.662;2023-04-15T12:46:49;99194.16;;;8.73;83.98
56912;BME280;42800;53.928;27.662;2023-04-15T12:49:15;99173.72;;;8.39;84.14
56912;BME280;42800;53.928;27.662;2023-04-15T12:51:43;99185.06;;;8.53;85.96